Time;durP1;ratioP1;P1;durP2;ratioP2;P2;SDS_P1;SDS_P2;PMS_P1;PMS_P2;Temp;Humidity;BMP_temperature;BMP_pressure;BME280_temperature;BME280_humidity;BME280_pressure;Samples;Min_cycle;Max_cycle;Signal;HPM_P1;HPM_P2
2023/07/14 00:01:37;;;;;;;1.58;1.48;;;;;;;;;;6192318;23;20210;-80
2023/07/14 00:04:12;;;;;;;1.38;1.20;;;;;;;;;;6191633;23;20178;-80
2023/07/14 00:06:40;;;;;;;1.05;1.05;;;;;;;;;;6191932;23;20162;-79
2023/07/14 00:09:24;;;;;;;1.15;1.05;;;;;;;;;;6192353;23;20253;-80
2023/07/14 00:11:51;;;;;;;1.23;1.13;;;;;;;;;;6192343;23;20205;-81
2023/07/14 00:14:20;;;;;;;1.00;1.00;;;;;;;;;;6192461;23;20662;-80
2023/07/14 00:16:48;;;;;;;0.90;0.90;;;;;;;;;;6192174;23;20555;-80
2023/07/14 00:19:18;;;;;;;1.00;1.00;;;;;;;;;;6191240;23;20674;-79
2023/07/14 00:21:46;;;;;;;1.10;1.10;;;;;;;;;;6193308;23;20619;-80
2023/07/14 00:24:16;;;;;;;0.90;0.90;;;;;;;;;;6193675;23;20230;-80
2023/07/14 00:26:47;;;;;;;1.30;1.20;;;;;;;;;;6192330;23;20234;-80
2023/07/14 00:29:35;;;;;;;0.82;0.82;;;;;;;;;;6190773;23;20213;-80
2023/07/14 00:32:08;;;;;;;1.17;1.10;;;;;;;;;;6192525;23;20592;-80
2023/07/14 00:34:36;;;;;;;1.45;1.20;;;;;;;;;;6192120;23;20218;-80
2023/07/14 00:37:03;;;;;;;1.33;1.30;;;;;;;;;;6192104;23;20673;-80
2023/07/14 00:39:31;;;;;;;0.98;0.98;;;;;;;;;;6191181;23;20285;-80
2023/07/14 00:41:58;;;;;;;1.58;1.00;;;;;;;;;;6191633;23;20195;-80
2023/07/14 00:44:26;;;;;;;1.35;1.27;;;;;;;;;;6192355;23;20291;-79
2023/07/14 00:46:55;;;;;;;1.23;1.15;;;;;;;;;;6191654;23;20553;-80
2023/07/14 00:49:32;;;;;;;1.35;1.25;;;;;;;;;;6191677;23;20556;-80
2023/07/14 00:52:04;;;;;;;2.45;1.20;;;;;;;;;;6192393;23;20277;-80
2023/07/14 00:54:32;;;;;;;2.53;1.15;;;;;;;;;;6191259;23;20238;-80
2023/07/14 00:57:01;;;;;;;1.00;1.00;;;;;;;;;;6191662;23;20178;-80
2023/07/14 00:59:33;;;;;;;1.58;1.13;;;;;;;;;;6191793;23;20650;-80
2023/07/14 01:02:24;;;;;;;0.90;0.90;;;;;;;;;;6191862;23;20700;-80
2023/07/14 01:04:55;;;;;;;1.00;1.00;;;;;;;;;;6184221;23;20182;-81
2023/07/14 01:07:27;;;;;;;1.17;1.05;;;;;;;;;;6192066;23;20162;-80
2023/07/14 01:09:58;;;;;;;1.30;1.20;;;;;;;;;;6191955;23;20190;-80
2023/07/14 01:12:26;;;;;;;1.10;0.90;;;;;;;;;;6190879;23;20233;-80
2023/07/14 01:14:55;;;;;;;1.45;1.35;;;;;;;;;;6191224;23;20552;-80
2023/07/14 01:17:24;;;;;;;1.40;1.30;;;;;;;;;;6191497;23;20178;-80
2023/07/14 01:19:54;;;;;;;1.30;1.20;;;;;;;;;;6191090;23;20685;-79
2023/07/14 01:22:34;;;;;;;1.15;1.15;;;;;;;;;;6191481;23;20257;-80
2023/07/14 01:25:11;;;;;;;1.10;1.10;;;;;;;;;;6191390;23;20250;-80
2023/07/14 01:27:40;;;;;;;0.70;0.70;;;;;;;;;;6191488;23;20226;-80
2023/07/14 01:30:09;;;;;;;1.33;1.23;;;;;;;;;;6190405;23;20224;-80
2023/07/14 01:32:39;;;;;;;1.27;1.15;;;;;;;;;;6191324;23;20182;-80
2023/07/14 01:35:09;;;;;;;1.50;1.10;;;;;;;;;;6191433;23;20572;-80
2023/07/14 01:37:39;;;;;;;1.13;1.00;;;;;;;;;;6191248;23;20171;-80
2023/07/14 01:40:11;;;;;;;2.92;1.25;;;;;;;;;;6191503;23;20198;-79
2023/07/14 01:42:41;;;;;;;1.10;0.82;;;;;;;;;;6191121;23;20163;-80
2023/07/14 01:45:13;;;;;;;1.27;1.17;;;;;;;;;;6191256;23;20257;-81
2023/07/14 01:47:42;;;;;;;0.90;0.90;;;;;;;;;;6191006;23;20162;-81
2023/07/14 01:50:16;;;;;;;1.13;1.02;;;;;;;;;;6190907;23;20226;-79
2023/07/14 01:52:44;;;;;;;1.13;1.02;;;;;;;;;;6191649;23;20169;-80
2023/07/14 01:55:14;;;;;;;1.52;1.40;;;;;;;;;;6191840;23;20274;-79
2023/07/14 01:57:44;;;;;;;2.70;1.13;;;;;;;;;;6191118;23;20222;-80
2023/07/14 02:00:13;;;;;;;2.45;1.20;;;;;;;;;;6191053;23;20237;-79
2023/07/14 02:02:41;;;;;;;1.60;1.27;;;;;;;;;;6190616;23;20178;-81
2023/07/14 02:05:30;;;;;;;2.45;1.75;;;;;;;;;;6191007;23;20185;-80
2023/07/14 02:08:02;;;;;;;1.02;1.02;;;;;;;;;;6189783;23;20658;-79
2023/07/14 02:10:30;;;;;;;1.27;1.15;;;;;;;;;;6191272;23;20277;-80
2023/07/14 02:12:59;;;;;;;1.20;1.10;;;;;;;;;;6191201;23;20257;-80
2023/07/14 02:15:29;;;;;;;1.58;1.10;;;;;;;;;;6191651;23;20569;-80
2023/07/14 02:17:57;;;;;;;1.50;1.40;;;;;;;;;;6191254;23;20218;-80
2023/07/14 02:20:29;;;;;;;0.95;0.95;;;;;;;;;;6190097;23;20226;-80
2023/07/14 02:22:57;;;;;;;1.00;1.00;;;;;;;;;;6191375;23;20238;-80
2023/07/14 02:25:27;;;;;;;1.40;1.30;;;;;;;;;;6191636;23;20564;-80
2023/07/14 02:27:54;;;;;;;1.52;1.42;;;;;;;;;;6191896;23;20206;-80
2023/07/14 02:30:26;;;;;;;1.20;1.10;;;;;;;;;;6190472;23;20195;-80
2023/07/14 02:32:58;;;;;;;1.85;1.10;;;;;;;;;;6191632;23;20167;-80
2023/07/14 02:35:30;;;;;;;2.13;1.30;;;;;;;;;;6191237;23;20221;-80
2023/07/14 02:38:02;;;;;;;1.60;1.50;;;;;;;;;;6191243;23;20159;-81
2023/07/14 02:40:33;;;;;;;1.60;1.45;;;;;;;;;;6190302;23;20257;-79
2023/07/14 02:43:04;;;;;;;1.42;1.33;;;;;;;;;;6191124;23;20563;-79
2023/07/14 02:45:34;;;;;;;1.33;1.23;;;;;;;;;;6190906;23;20217;-80
2023/07/14 02:48:03;;;;;;;1.10;1.10;;;;;;;;;;6190938;23;20238;-80
2023/07/14 02:50:30;;;;;;;1.08;1.08;;;;;;;;;;6191115;23;20245;-80
2023/07/14 02:52:57;;;;;;;1.63;1.27;;;;;;;;;;6191649;23;20573;-80
2023/07/14 02:55:25;;;;;;;2.67;1.30;;;;;;;;;;6192116;23;20205;-79
2023/07/14 02:57:52;;;;;;;1.42;1.30;;;;;;;;;;6193147;23;20249;-79
2023/07/14 03:00:20;;;;;;;1.35;1.25;;;;;;;;;;6193058;23;20233;-79
2023/07/14 03:02:49;;;;;;;1.42;1.15;;;;;;;;;;6191657;23;20713;-80
2023/07/14 03:05:17;;;;;;;2.05;1.38;;;;;;;;;;6191841;23;20265;-79
2023/07/14 03:07:45;;;;;;;1.50;1.20;;;;;;;;;;6193618;23;20678;-80
2023/07/14 03:10:13;;;;;;;1.80;1.25;;;;;;;;;;6192305;23;20206;-80
2023/07/14 03:12:40;;;;;;;1.48;1.38;;;;;;;;;;6193734;23;20209;-80
2023/07/14 03:15:09;;;;;;;1.55;1.40;;;;;;;;;;6192510;23;20249;-82
2023/07/14 03:17:36;;;;;;;1.42;1.33;;;;;;;;;;6192475;23;20225;-83
2023/07/14 03:20:10;;;;;;;1.23;1.13;;;;;;;;;;6192009;23;20226;-82
2023/07/14 03:22:37;;;;;;;1.48;1.38;;;;;;;;;;6192154;23;20626;-82
2023/07/14 03:25:06;;;;;;;1.77;1.33;;;;;;;;;;6193076;23;20179;-83
2023/07/14 03:27:34;;;;;;;1.30;1.20;;;;;;;;;;6193126;23;20205;-81
2023/07/14 03:30:01;;;;;;;1.50;1.35;;;;;;;;;;6191159;23;20202;-82
2023/07/14 03:32:28;;;;;;;1.20;1.10;;;;;;;;;;6191911;23;20178;-81
2023/07/14 03:34:56;;;;;;;1.15;1.10;;;;;;;;;;6190864;23;20250;-81
2023/07/14 03:37:25;;;;;;;1.10;1.10;;;;;;;;;;6192419;23;20201;-82
2023/07/14 03:39:52;;;;;;;1.60;1.50;;;;;;;;;;6192562;23;20229;-82
2023/07/14 03:42:20;;;;;;;1.30;1.20;;;;;;;;;;6193802;23;20649;-82
2023/07/14 03:44:47;;;;;;;1.05;1.05;;;;;;;;;;6192669;23;20642;-81
2023/07/14 03:47:15;;;;;;;0.90;0.90;;;;;;;;;;6191825;23;20280;-81
2023/07/14 03:49:42;;;;;;;0.80;0.80;;;;;;;;;;6192998;23;20198;-83
2023/07/14 03:52:10;;;;;;;1.05;1.00;;;;;;;;;;6191448;23;20277;-82
2023/07/14 03:54:38;;;;;;;4.95;1.38;;;;;;;;;;6191978;23;20238;-82
2023/07/14 03:57:06;;;;;;;1.05;0.90;;;;;;;;;;6192929;23;20230;-82
2023/07/14 03:59:34;;;;;;;1.05;1.05;;;;;;;;;;6187420;23;20285;-81
2023/07/14 04:02:02;;;;;;;1.13;1.13;;;;;;;;;;6186476;23;20208;-82
2023/07/14 04:04:30;;;;;;;1.10;1.10;;;;;;;;;;6185307;23;20178;-82
2023/07/14 04:06:58;;;;;;;1.27;1.17;;;;;;;;;;6185131;23;20182;-82
2023/07/14 04:09:26;;;;;;;1.00;0.90;;;;;;;;;;6187378;23;20185;-82
2023/07/14 04:11:54;;;;;;;1.33;1.23;;;;;;;;;;6190714;23;20273;-82
2023/07/14 04:14:22;;;;;;;1.13;1.02;;;;;;;;;;6190250;23;20209;-80
2023/07/14 04:16:50;;;;;;;1.00;1.00;;;;;;;;;;6190480;23;20210;-82
2023/07/14 04:19:17;;;;;;;0.70;0.70;;;;;;;;;;6190345;23;20249;-83
2023/07/14 04:21:44;;;;;;;0.95;0.93;;;;;;;;;;6190934;23;20222;-82
2023/07/14 04:24:12;;;;;;;1.45;1.15;;;;;;;;;;6189300;23;20233;-83
2023/07/14 04:26:39;;;;;;;1.38;1.30;;;;;;;;;;6190832;23;20258;-81
2023/07/14 04:29:11;;;;;;;0.90;0.90;;;;;;;;;;6189512;23;20207;-81
2023/07/14 04:31:39;;;;;;;2.20;1.33;;;;;;;;;;6187873;23;20953;-83
2023/07/14 04:34:06;;;;;;;1.55;1.45;;;;;;;;;;6187199;23;20189;-81
2023/07/14 04:36:34;;;;;;;2.28;1.63;;;;;;;;;;6188339;23;20543;-81
2023/07/14 04:39:04;;;;;;;1.50;1.40;;;;;;;;;;6187639;23;20692;-83
2023/07/14 04:41:33;;;;;;;1.60;1.48;;;;;;;;;;6187978;23;20285;-81
2023/07/14 04:44:06;;;;;;;2.20;1.42;;;;;;;;;;6187956;23;20178;-82
2023/07/14 04:46:35;;;;;;;1.70;1.58;;;;;;;;;;6188098;23;20674;-81
2023/07/14 04:49:02;;;;;;;1.60;1.40;;;;;;;;;;6185918;23;20205;-82
2023/07/14 04:51:30;;;;;;;1.70;1.52;;;;;;;;;;6186294;23;20226;-81
2023/07/14 04:53:57;;;;;;;1.77;1.67;;;;;;;;;;6186711;23;20225;-82
2023/07/14 04:56:25;;;;;;;2.15;1.95;;;;;;;;;;6185833;23;20180;-81
2023/07/14 04:58:53;;;;;;;2.47;2.22;;;;;;;;;;6185366;23;20213;-80
2023/07/14 05:01:21;;;;;;;3.03;2.72;;;;;;;;;;6184863;23;20309;-82
2023/07/14 05:03:50;;;;;;;39.15;10.23;;;;;;;;;;6185031;23;20261;-81
2023/07/14 05:06:17;;;;;;;4.00;2.65;;;;;;;;;;6186529;23;20246;-83
2023/07/14 05:08:45;;;;;;;4.03;2.90;;;;;;;;;;6187407;23;20183;-82
2023/07/14 05:11:12;;;;;;;3.35;1.63;;;;;;;;;;6188135;23;20222;-80
2023/07/14 05:13:40;;;;;;;10.40;4.40;;;;;;;;;;6185623;23;20209;-81
2023/07/14 05:16:07;;;;;;;2.45;1.92;;;;;;;;;;6186983;23;20182;-83
2023/07/14 05:18:35;;;;;;;6.47;3.03;;;;;;;;;;6188515;23;20183;-80
2023/07/14 05:21:05;;;;;;;19.13;5.07;;;;;;;;;;6187094;23;20202;-82
2023/07/14 05:23:33;;;;;;;6.03;3.08;;;;;;;;;;6188042;23;20179;-81
2023/07/14 05:26:01;;;;;;;2.20;2.00;;;;;;;;;;6187437;23;20182;-82
2023/07/14 05:28:29;;;;;;;4.85;2.88;;;;;;;;;;6188918;23;20174;-82
2023/07/14 05:30:58;;;;;;;1.67;1.58;;;;;;;;;;6188402;23;20535;-80
2023/07/14 05:33:25;;;;;;;1.98;1.85;;;;;;;;;;6186822;23;20186;-83
2023/07/14 05:35:53;;;;;;;2.05;1.70;;;;;;;;;;6184611;23;20668;-83
2023/07/14 05:38:23;;;;;;;5.72;2.45;;;;;;;;;;6185207;23;20193;-82
2023/07/14 05:40:54;;;;;;;5.25;2.30;;;;;;;;;;6186562;23;20585;-85
2023/07/14 05:43:22;;;;;;;2.53;1.77;;;;;;;;;;6187644;23;20175;-86
2023/07/14 05:45:50;;;;;;;1.75;1.40;;;;;;;;;;6186964;23;20185;-86
2023/07/14 05:48:19;;;;;;;2.75;2.55;;;;;;;;;;6187748;23;20189;-85
2023/07/14 05:50:46;;;;;;;1.60;1.50;;;;;;;;;;6187342;23;20195;-86
2023/07/14 05:53:17;;;;;;;3.92;2.08;;;;;;;;;;6189869;23;20257;-85
2023/07/14 05:55:46;;;;;;;2.20;1.63;;;;;;;;;;6190211;23;20167;-85
2023/07/14 05:58:13;;;;;;;3.58;3.00;;;;;;;;;;6189298;23;20694;-85
2023/07/14 06:00:42;;;;;;;2.25;1.98;;;;;;;;;;6190270;23;20261;-85
2023/07/14 06:03:13;;;;;;;1.80;1.70;;;;;;;;;;6190391;23;20199;-85
2023/07/14 06:05:41;;;;;;;2.10;1.88;;;;;;;;;;6190942;23;20237;-85
2023/07/14 06:08:08;;;;;;;2.30;1.92;;;;;;;;;;6189007;23;20182;-85
2023/07/14 06:10:36;;;;;;;2.67;2.47;;;;;;;;;;6188816;23;20566;-85
2023/07/14 06:13:06;;;;;;;2.13;1.95;;;;;;;;;;6190352;23;20171;-85
2023/07/14 06:15:33;;;;;;;2.80;1.35;;;;;;;;;;6190261;23;20257;-85
2023/07/14 06:18:00;;;;;;;1.60;1.50;;;;;;;;;;6191011;23;20281;-86
2023/07/14 06:20:28;;;;;;;3.17;2.10;;;;;;;;;;6190262;23;20225;-84
2023/07/14 06:22:55;;;;;;;1.65;1.55;;;;;;;;;;6190135;23;20218;-86
2023/07/14 06:25:23;;;;;;;2.35;1.90;;;;;;;;;;6190294;23;20744;-85
2023/07/14 06:27:51;;;;;;;1.83;1.73;;;;;;;;;;6188681;23;20257;-85
2023/07/14 06:30:20;;;;;;;2.88;2.45;;;;;;;;;;6189594;23;20198;-85
2023/07/14 06:32:48;;;;;;;3.22;1.95;;;;;;;;;;6189808;23;20194;-83
2023/07/14 06:35:15;;;;;;;3.28;2.33;;;;;;;;;;6190544;23;20225;-84
2023/07/14 06:37:43;;;;;;;1.95;1.67;;;;;;;;;;6190414;23;20261;-84
2023/07/14 06:40:11;;;;;;;2.85;1.70;;;;;;;;;;6191263;23;20190;-84
2023/07/14 06:42:39;;;;;;;2.72;1.60;;;;;;;;;;6189804;23;20281;-83
2023/07/14 06:45:08;;;;;;;1.88;1.77;;;;;;;;;;6191255;23;20483;-85
2023/07/14 06:47:37;;;;;;;2.58;2.03;;;;;;;;;;6189792;23;20701;-84
2023/07/14 06:50:05;;;;;;;1.60;1.50;;;;;;;;;;6189262;23;20205;-85
2023/07/14 06:52:33;;;;;;;2.72;1.90;;;;;;;;;;6189670;23;20198;-85
2023/07/14 06:55:01;;;;;;;2.92;1.60;;;;;;;;;;6189640;23;20213;-85
2023/07/14 06:57:28;;;;;;;1.58;1.27;;;;;;;;;;6189008;23;20378;-85
2023/07/14 06:59:56;;;;;;;1.95;1.80;;;;;;;;;;6189027;23;20171;-83
2023/07/14 07:02:23;;;;;;;3.35;1.67;;;;;;;;;;6188616;23;20286;-86
2023/07/14 07:04:52;;;;;;;1.90;1.63;;;;;;;;;;6188990;23;20170;-85
2023/07/14 07:07:20;;;;;;;2.55;1.70;;;;;;;;;;6188576;23;20614;-83
2023/07/14 07:09:48;;;;;;;1.98;1.88;;;;;;;;;;6189949;23;20630;-85
2023/07/14 07:12:15;;;;;;;2.28;1.67;;;;;;;;;;6188506;23;20222;-85
2023/07/14 07:14:43;;;;;;;2.55;1.75;;;;;;;;;;6189329;23;20553;-84
2023/07/14 07:17:10;;;;;;;2.70;1.60;;;;;;;;;;6188287;23;20234;-83
2023/07/14 07:19:38;;;;;;;2.00;1.90;;;;;;;;;;6189658;23;20183;-84
2023/07/14 07:22:08;;;;;;;1.90;1.70;;;;;;;;;;6189693;23;20593;-84
2023/07/14 07:24:36;;;;;;;1.90;1.70;;;;;;;;;;6189569;23;20155;-83
2023/07/14 07:27:04;;;;;;;1.58;1.48;;;;;;;;;;6189597;23;20236;-84
2023/07/14 07:29:32;;;;;;;1.80;1.70;;;;;;;;;;6189361;23;20213;-84
2023/07/14 07:32:00;;;;;;;1.95;1.85;;;;;;;;;;6188712;23;20596;-84
2023/07/14 07:34:27;;;;;;;1.88;1.45;;;;;;;;;;6190093;23;20174;-84
2023/07/14 07:36:54;;;;;;;1.88;1.70;;;;;;;;;;6189420;23;20577;-83
2023/07/14 07:39:24;;;;;;;1.75;1.65;;;;;;;;;;6190231;23;20654;-83
2023/07/14 07:41:52;;;;;;;1.50;1.40;;;;;;;;;;6192519;23;20230;-85
2023/07/14 07:44:19;;;;;;;1.70;1.58;;;;;;;;;;6191849;23;20198;-85
2023/07/14 07:46:47;;;;;;;2.75;1.40;;;;;;;;;;6192784;23;20206;-85
2023/07/14 07:49:15;;;;;;;2.40;2.00;;;;;;;;;;6192643;23;20209;-83
2023/07/14 07:51:42;;;;;;;2.80;2.00;;;;;;;;;;6191948;23;20269;-84
2023/07/14 07:54:10;;;;;;;2.33;1.60;;;;;;;;;;6190993;23;20244;-84
2023/07/14 07:56:43;;;;;;;1.83;1.73;;;;;;;;;;6192321;23;20182;-83
2023/07/14 07:59:10;;;;;;;1.73;1.60;;;;;;;;;;6191569;23;20540;-84
2023/07/14 08:01:38;;;;;;;1.98;1.88;;;;;;;;;;6190419;23;20217;-84
2023/07/14 08:04:05;;;;;;;3.17;2.20;;;;;;;;;;6189776;23;20233;-84
2023/07/14 08:06:34;;;;;;;1.50;1.40;;;;;;;;;;6189904;23;20621;-85
2023/07/14 08:09:02;;;;;;;1.50;1.40;;;;;;;;;;6189767;23;20174;-84
2023/07/14 08:11:30;;;;;;;1.70;1.60;;;;;;;;;;6189341;23;20205;-84
2023/07/14 08:13:59;;;;;;;2.00;1.58;;;;;;;;;;6189484;23;20206;-83
2023/07/14 08:16:27;;;;;;;2.22;2.13;;;;;;;;;;6189832;23;20204;-84
2023/07/14 08:18:54;;;;;;;1.90;1.42;;;;;;;;;;6190064;23;20257;-84
2023/07/14 08:21:22;;;;;;;1.95;1.85;;;;;;;;;;6189404;23;20198;-83
2023/07/14 08:23:49;;;;;;;2.28;1.80;;;;;;;;;;6189241;23;20244;-83
2023/07/14 08:26:17;;;;;;;1.85;1.73;;;;;;;;;;6189569;23;20198;-84
2023/07/14 08:28:45;;;;;;;3.25;2.05;;;;;;;;;;6189459;23;20225;-83
2023/07/14 08:31:14;;;;;;;2.22;2.03;;;;;;;;;;6189532;23;20277;-86
2023/07/14 08:33:43;;;;;;;1.45;1.35;;;;;;;;;;6189163;23;20183;-86
2023/07/14 08:36:13;;;;;;;1.95;1.70;;;;;;;;;;6189296;23;20184;-83
2023/07/14 08:38:41;;;;;;;2.08;1.83;;;;;;;;;;6189869;23;20167;-85
2023/07/14 08:41:18;;;;;;;2.70;1.58;;;;;;;;;;6190639;23;20195;-84
2023/07/14 08:44:03;;;;;;;1.90;1.80;;;;;;;;;;6189513;23;20213;-84
2023/07/14 08:46:41;;;;;;;1.73;1.52;;;;;;;;;;6190125;23;20167;-85
2023/07/14 08:49:17;;;;;;;3.03;1.38;;;;;;;;;;6189295;23;20165;-84
2023/07/14 08:51:46;;;;;;;1.42;1.33;;;;;;;;;;6188293;23;20593;-84
2023/07/14 08:54:17;;;;;;;1.65;1.40;;;;;;;;;;6188542;23;20198;-85
2023/07/14 08:56:45;;;;;;;1.50;1.40;;;;;;;;;;6189501;23;20553;-84
2023/07/14 08:59:18;;;;;;;1.33;1.23;;;;;;;;;;6188588;23;20250;-83
2023/07/14 09:01:53;;;;;;;1.50;1.38;;;;;;;;;;6189107;23;20206;-84
2023/07/14 09:04:24;;;;;;;3.35;1.70;;;;;;;;;;6189558;23;20182;-84
2023/07/14 09:06:52;;;;;;;2.13;1.70;;;;;;;;;;6188247;23;20158;-84
2023/07/14 09:09:29;;;;;;;1.83;1.73;;;;;;;;;;6188548;23;20959;-84
2023/07/14 09:12:10;;;;;;;2.35;1.85;;;;;;;;;;6188639;23;20201;-84
2023/07/14 09:17:21;;;;;;;3.13;2.25;;;;;;;;;;6155378;23;20175;-85
2023/07/14 09:20:23;;;;;;;4.20;2.47;;;;;;;;;;6155511;23;20179;-85
2023/07/14 09:22:57;;;;;;;1.48;1.38;;;;;;;;;;6156772;23;20235;-85
2023/07/14 09:25:30;;;;;;;1.75;1.65;;;;;;;;;;6156774;23;20205;-85
2023/07/14 09:27:57;;;;;;;1.40;1.35;;;;;;;;;;6156690;23;20473;-85
2023/07/14 09:30:27;;;;;;;1.80;1.70;;;;;;;;;;6155573;23;20253;-85
2023/07/14 09:33:03;;;;;;;1.80;1.67;;;;;;;;;;6156894;23;20179;-84
2023/07/14 09:35:31;;;;;;;1.65;1.55;;;;;;;;;;6156137;23;20237;-85
2023/07/14 09:38:05;;;;;;;2.05;1.40;;;;;;;;;;6155783;23;20217;-85
2023/07/14 09:40:36;;;;;;;1.27;1.27;;;;;;;;;;6156647;23;20159;-85
2023/07/14 09:43:06;;;;;;;2.58;1.77;;;;;;;;;;6155853;23;20653;-85
2023/07/14 09:45:36;;;;;;;2.00;1.73;;;;;;;;;;6154646;23;20249;-85
2023/07/14 09:48:11;;;;;;;2.35;1.70;;;;;;;;;;6155076;23;20174;-85
2023/07/14 09:50:46;;;;;;;2.00;1.80;;;;;;;;;;6155683;23;20155;-85
2023/07/14 09:53:14;;;;;;;1.85;1.67;;;;;;;;;;6155205;23;20230;-85
2023/07/14 09:55:52;;;;;;;1.48;1.38;;;;;;;;;;6155091;23;20590;-86
2023/07/14 09:58:24;;;;;;;1.40;1.30;;;;;;;;;;6155237;23;20162;-86
2023/07/14 10:00:54;;;;;;;2.05;1.80;;;;;;;;;;6154970;23;20163;-85
2023/07/14 10:03:30;;;;;;;2.25;1.90;;;;;;;;;;6154881;23;20181;-85
2023/07/14 10:06:02;;;;;;;2.58;1.70;;;;;;;;;;6155095;23;20662;-86
2023/07/14 10:08:34;;;;;;;5.28;2.53;;;;;;;;;;6155239;23;20594;-85
2023/07/14 10:11:19;;;;;;;2.80;1.73;;;;;;;;;;6155049;23;20537;-85
2023/07/14 10:13:50;;;;;;;1.95;1.85;;;;;;;;;;6155349;23;20156;-86
2023/07/14 10:16:20;;;;;;;2.60;2.40;;;;;;;;;;6154894;23;20209;-86
2023/07/14 10:18:52;;;;;;;2.20;2.00;;;;;;;;;;6154872;23;20171;-86
2023/07/14 10:21:26;;;;;;;7.03;2.67;;;;;;;;;;6155273;23;20239;-86
2023/07/14 10:24:04;;;;;;;2.35;2.22;;;;;;;;;;6155038;23;20258;-86
2023/07/14 10:26:34;;;;;;;2.30;2.10;;;;;;;;;;6154660;23;20191;-85
2023/07/14 10:29:05;;;;;;;2.25;2.05;;;;;;;;;;6154785;23;20179;-85
2023/07/14 10:31:41;;;;;;;1.95;1.85;;;;;;;;;;6155182;23;20254;-84
2023/07/14 10:34:25;;;;;;;4.55;2.20;;;;;;;;;;6155138;23;20165;-85
2023/07/14 10:36:57;;;;;;;2.60;1.92;;;;;;;;;;6154781;23;20230;-85
2023/07/14 10:39:36;;;;;;;2.55;1.92;;;;;;;;;;6154938;23;20159;-85
2023/07/14 10:42:05;;;;;;;2.80;2.60;;;;;;;;;;6155414;23;20159;-85
2023/07/14 10:44:37;;;;;;;4.90;2.30;;;;;;;;;;6154298;23;20278;-84
2023/07/14 10:47:12;;;;;;;2.72;2.53;;;;;;;;;;6154941;23;20538;-84
2023/07/14 10:49:45;;;;;;;2.50;2.30;;;;;;;;;;6154710;23;20188;-84
2023/07/14 10:52:18;;;;;;;3.00;2.33;;;;;;;;;;6155047;23;20165;-84
2023/07/14 10:54:52;;;;;;;1.90;1.80;;;;;;;;;;6155058;23;20238;-85
2023/07/14 10:57:44;;;;;;;3.67;2.40;;;;;;;;;;6155011;23;20622;-85
2023/07/14 11:00:25;;;;;;;1.90;1.80;;;;;;;;;;6154099;23;20187;-84
2023/07/14 11:03:05;;;;;;;1.60;1.50;;;;;;;;;;6155002;23;20163;-85
2023/07/14 11:05:34;;;;;;;1.48;1.38;;;;;;;;;;6154785;23;20282;-85
2023/07/14 11:08:01;;;;;;;2.47;2.28;;;;;;;;;;6154862;23;20258;-85
2023/07/14 11:10:45;;;;;;;1.88;1.77;;;;;;;;;;6154990;23;20614;-85
2023/07/14 11:13:20;;;;;;;2.97;1.98;;;;;;;;;;6155163;23;20242;-84
2023/07/14 11:15:52;;;;;;;1.85;1.75;;;;;;;;;;6155986;23;20199;-85
2023/07/14 11:18:28;;;;;;;2.50;2.30;;;;;;;;;;6156296;23;20198;-84
2023/07/14 11:21:29;;;;;;;1.92;1.83;;;;;;;;;;6156330;23;20160;-85
2023/07/14 11:24:13;;;;;;;1.70;1.60;;;;;;;;;;6156586;23;20250;-85
2023/07/14 11:27:00;;;;;;;2.22;1.98;;;;;;;;;;6156543;23;20524;-85
2023/07/14 11:29:32;;;;;;;1.80;1.70;;;;;;;;;;6156379;23;20182;-85
2023/07/14 11:32:02;;;;;;;3.20;2.35;;;;;;;;;;6156804;23;20163;-85
2023/07/14 11:34:34;;;;;;;1.70;1.60;;;;;;;;;;6156246;23;20637;-85
2023/07/14 11:37:23;;;;;;;1.65;1.55;;;;;;;;;;6156071;23;20194;-85
2023/07/14 11:39:53;;;;;;;2.03;1.83;;;;;;;;;;6156489;23;20182;-84
2023/07/14 11:42:24;;;;;;;2.10;1.95;;;;;;;;;;6156304;23;20181;-85
2023/07/14 11:44:54;;;;;;;2.25;2.10;;;;;;;;;;6156384;23;20183;-84
2023/07/14 11:47:25;;;;;;;2.80;2.60;;;;;;;;;;6156787;23;20173;-84
2023/07/14 11:49:54;;;;;;;3.50;2.38;;;;;;;;;;6155967;23;20186;-85
2023/07/14 11:52:26;;;;;;;2.60;2.33;;;;;;;;;;6155815;23;20682;-85
2023/07/14 11:55:03;;;;;;;2.85;2.45;;;;;;;;;;6156646;23;20160;-84
2023/07/14 11:57:45;;;;;;;2.20;2.08;;;;;;;;;;6156184;23;20166;-84
2023/07/14 12:00:23;;;;;;;2.90;2.50;;;;;;;;;;6156015;23;20246;-84
2023/07/14 12:02:59;;;;;;;2.55;2.05;;;;;;;;;;6156115;23;20160;-84
2023/07/14 12:05:37;;;;;;;2.10;2.00;;;;;;;;;;6156198;23;20203;-85
2023/07/14 12:08:23;;;;;;;2.38;2.17;;;;;;;;;;6156259;23;20163;-85
2023/07/14 12:10:51;;;;;;;2.80;2.60;;;;;;;;;;6156103;23;20159;-85
2023/07/14 12:13:33;;;;;;;2.17;2.03;;;;;;;;;;6156318;23;20642;-84
2023/07/14 12:16:24;;;;;;;2.40;2.20;;;;;;;;;;6156037;23;20205;-84
2023/07/14 12:19:23;;;;;;;2.25;2.10;;;;;;;;;;6148455;23;20343;-84
2023/07/14 12:22:06;;;;;;;2.40;2.20;;;;;;;;;;6156209;23;20206;-84
2023/07/14 12:24:39;;;;;;;1.95;1.73;;;;;;;;;;6156043;23;20159;-84
2023/07/14 12:27:24;;;;;;;1.85;1.75;;;;;;;;;;6155691;23;20242;-84
2023/07/14 12:29:52;;;;;;;2.13;1.70;;;;;;;;;;6156241;23;20166;-84
2023/07/14 12:32:22;;;;;;;2.47;2.28;;;;;;;;;;6156563;23;20175;-84
2023/07/14 12:34:49;;;;;;;1.85;1.75;;;;;;;;;;6156037;23;20241;-84
2023/07/14 12:37:20;;;;;;;2.10;2.00;;;;;;;;;;6156086;23;20638;-84
2023/07/14 12:39:52;;;;;;;2.10;1.90;;;;;;;;;;6156464;23;20554;-84
2023/07/14 12:42:20;;;;;;;2.15;2.05;;;;;;;;;;6155987;23;20239;-84
2023/07/14 12:44:49;;;;;;;2.00;1.90;;;;;;;;;;6156295;23;20619;-84
2023/07/14 12:47:18;;;;;;;2.35;2.15;;;;;;;;;;6155916;23;20206;-83
2023/07/14 12:49:48;;;;;;;2.20;1.92;;;;;;;;;;6155696;23;20210;-84
2023/07/14 12:52:21;;;;;;;1.88;1.77;;;;;;;;;;6155890;23;20630;-84
2023/07/14 12:54:52;;;;;;;2.58;2.38;;;;;;;;;;6156471;23;20158;-84
2023/07/14 12:57:21;;;;;;;2.33;2.08;;;;;;;;;;6156100;23;20159;-86
2023/07/14 12:59:50;;;;;;;2.90;2.42;;;;;;;;;;6155468;23;20179;-84
2023/07/14 13:02:17;;;;;;;1.90;1.80;;;;;;;;;;6156373;23;20172;-85
2023/07/14 13:04:46;;;;;;;2.30;2.10;;;;;;;;;;6156225;23;20210;-84
2023/07/14 13:07:16;;;;;;;1.83;1.73;;;;;;;;;;6156406;23;20539;-84
2023/07/14 13:09:44;;;;;;;1.73;1.63;;;;;;;;;;6156650;23;20159;-84
2023/07/14 13:12:15;;;;;;;2.78;2.05;;;;;;;;;;6156152;23;20206;-84
2023/07/14 13:14:49;;;;;;;2.05;1.73;;;;;;;;;;6155933;23;20772;-85
2023/07/14 13:17:22;;;;;;;2.00;1.90;;;;;;;;;;6155720;23;20175;-84
2023/07/14 13:19:51;;;;;;;2.35;2.15;;;;;;;;;;6155687;23;20170;-84
2023/07/14 13:22:22;;;;;;;2.45;1.98;;;;;;;;;;6155874;23;20681;-84
2023/07/14 13:25:00;;;;;;;2.42;1.92;;;;;;;;;;6155564;23;20158;-84
2023/07/14 13:27:29;;;;;;;2.70;2.50;;;;;;;;;;6155965;23;20651;-84
2023/07/14 13:30:01;;;;;;;1.77;1.67;;;;;;;;;;6155629;23;20230;-84
2023/07/14 13:32:29;;;;;;;2.17;1.90;;;;;;;;;;6156635;23;20274;-84
2023/07/14 13:34:59;;;;;;;2.20;2.00;;;;;;;;;;6156092;23;20203;-84
2023/07/14 13:37:28;;;;;;;2.40;2.03;;;;;;;;;;6155471;23;20172;-84
2023/07/14 13:39:57;;;;;;;2.90;2.17;;;;;;;;;;6154939;23;20206;-85
2023/07/14 13:42:33;;;;;;;2.22;2.03;;;;;;;;;;6155696;23;20674;-84
2023/07/14 13:45:02;;;;;;;2.20;2.00;;;;;;;;;;6155453;23;20195;-84
2023/07/14 13:47:39;;;;;;;1.77;1.67;;;;;;;;;;6155509;23;20194;-84
2023/07/14 13:50:09;;;;;;;1.70;1.60;;;;;;;;;;6155070;23;20178;-84
2023/07/14 13:52:36;;;;;;;1.98;1.88;;;;;;;;;;6155855;23;20175;-84
2023/07/14 13:55:13;;;;;;;1.73;1.60;;;;;;;;;;6155445;23;20217;-84
2023/07/14 13:57:42;;;;;;;1.77;1.67;;;;;;;;;;6155513;23;20678;-84
2023/07/14 14:00:16;;;;;;;2.83;1.92;;;;;;;;;;6154734;23;20274;-84
2023/07/14 14:02:45;;;;;;;1.80;1.70;;;;;;;;;;6154857;23;20221;-84
2023/07/14 14:05:16;;;;;;;2.28;1.70;;;;;;;;;;6155076;23;20202;-83
2023/07/14 14:07:43;;;;;;;2.42;2.22;;;;;;;;;;6154980;23;20195;-83
2023/07/14 14:10:13;;;;;;;1.92;1.83;;;;;;;;;;6154491;23;20175;-84
2023/07/14 14:12:42;;;;;;;2.08;1.75;;;;;;;;;;6155240;23;20248;-84
2023/07/14 14:15:16;;;;;;;1.90;1.80;;;;;;;;;;6155005;23;20696;-84
2023/07/14 14:17:45;;;;;;;2.47;1.80;;;;;;;;;;6155187;23;20155;-84
2023/07/14 14:20:18;;;;;;;1.35;1.25;;;;;;;;;;6154694;23;20220;-85
2023/07/14 14:22:46;;;;;;;1.30;1.20;;;;;;;;;;6155156;23;20230;-84
2023/07/14 14:25:17;;;;;;;1.70;1.38;;;;;;;;;;6154977;23;20771;-84
2023/07/14 14:27:46;;;;;;;1.48;1.38;;;;;;;;;;6155355;23;20668;-85
2023/07/14 14:30:14;;;;;;;1.77;1.67;;;;;;;;;;6154702;23;20177;-84
2023/07/14 14:32:42;;;;;;;4.00;2.30;;;;;;;;;;6154958;23;20255;-84
2023/07/14 14:35:23;;;;;;;2.38;1.90;;;;;;;;;;6154913;23;20230;-84
2023/07/14 14:37:51;;;;;;;2.42;1.95;;;;;;;;;;6154958;23;20497;-83
2023/07/14 14:40:19;;;;;;;1.52;1.42;;;;;;;;;;6154632;23;20182;-84
2023/07/14 14:42:48;;;;;;;3.30;1.77;;;;;;;;;;6154623;23;20245;-84
2023/07/14 14:45:22;;;;;;;1.55;1.40;;;;;;;;;;6154720;23;20193;-84
2023/07/14 14:47:49;;;;;;;0.93;0.93;;;;;;;;;;6154855;23;20214;-85
2023/07/14 14:50:18;;;;;;;1.42;1.33;;;;;;;;;;6155230;23;20181;-84
2023/07/14 14:52:45;;;;;;;2.17;1.67;;;;;;;;;;6157771;23;20249;-84
2023/07/14 14:55:18;;;;;;;2.25;1.75;;;;;;;;;;6156868;23;20668;-84
2023/07/14 14:57:49;;;;;;;2.40;1.70;;;;;;;;;;6157874;23;20565;-84
2023/07/14 15:00:21;;;;;;;2.03;1.52;;;;;;;;;;6156928;23;20486;-85
2023/07/14 15:02:49;;;;;;;1.92;1.25;;;;;;;;;;6157229;23;20160;-84
2023/07/14 15:05:18;;;;;;;1.67;1.42;;;;;;;;;;6156686;23;20198;-84
2023/07/14 15:07:47;;;;;;;1.67;1.58;;;;;;;;;;6157636;23;20257;-84